sensor_id;sensor_type;location;lat;lon;timestamp;temperature;humidity
22112;DHT22;11222;50.872;4.312;2023-10-08T00:01:02;16.80;99.90
22112;DHT22;11222;50.872;4.312;2023-10-08T00:03:28;16.80;99.90
22112;DHT22;11222;50.872;4.312;2023-10-08T00:05:55;16.70;99.90
22112;DHT22;11222;50.872;4.312;2023-10-08T00:08:20;16.70;99.90
22112;DHT22;11222;50.872;4.312;2023-10-08T00:10:46;16.70;99.90
22112;DHT22;11222;50.872;4.312;2023-10-08T00:13:13;16.70;99.90
22112;DHT22;11222;50.872;4.312;2023-10-08T00:15:41;16.70;99.90
22112;DHT22;11222;50.872;4.312;2023-10-08T00:18:15;16.60;99.90
22112;DHT22;11222;50.872;4.312;2023-10-08T00:20:41;16.60;99.90
22112;DHT22;11222;50.872;4.312;2023-10-08T00:23:22;16.50;99.90
22112;DHT22;11222;50.872;4.312;2023-10-08T00:25:53;16.40;99.90
22112;DHT22;11222;50.872;4.312;2023-10-08T00:28:20;16.30;99.90
22112;DHT22;11222;50.872;4.312;2023-10-08T00:30:46;16.30;99.90
22112;DHT22;11222;50.872;4.312;2023-10-08T00:33:13;16.30;99.90
22112;DHT22;11222;50.872;4.312;2023-10-08T00:35:39;16.30;99.90
22112;DHT22;11222;50.872;4.312;2023-10-08T00:38:09;16.30;99.90
22112;DHT22;11222;50.872;4.312;2023-10-08T00:40:46;16.30;99.90
22112;DHT22;11222;50.872;4.312;2023-10-08T00:43:34;16.40;99.90
22112;DHT22;11222;50.872;4.312;2023-10-08T00:46:00;16.40;99.90
22112;DHT22;11222;50.872;4.312;2023-10-08T00:48:26;16.40;99.90
22112;DHT22;11222;50.872;4.312;2023-10-08T00:50:56;16.40;99.90
22112;DHT22;11222;50.872;4.312;2023-10-08T00:53:34;16.40;99.90
22112;DHT22;11222;50.872;4.312;2023-10-08T00:56:04;16.40;99.90
22112;DHT22;11222;50.872;4.312;2023-10-08T00:58:39;16.40;99.90
22112;DHT22;11222;50.872;4.312;2023-10-08T01:01:06;16.30;99.90
22112;DHT22;11222;50.872;4.312;2023-10-08T01:03:36;16.30;99.90
22112;DHT22;11222;50.872;4.312;2023-10-08T01:06:01;16.30;99.90
22112;DHT22;11222;50.872;4.312;2023-10-08T01:08:28;16.30;99.90
22112;DHT22;11222;50.872;4.312;2023-10-08T01:11:20;16.20;99.90
22112;DHT22;11222;50.872;4.312;2023-10-08T01:13:48;16.20;99.90
22112;DHT22;11222;50.872;4.312;2023-10-08T01:16:14;16.10;99.90
22112;DHT22;11222;50.872;4.312;2023-10-08T01:18:40;16.10;99.90
22112;DHT22;11222;50.872;4.312;2023-10-08T01:21:11;16.10;99.90
22112;DHT22;11222;50.872;4.312;2023-10-08T01:23:44;16.10;99.90
22112;DHT22;11222;50.872;4.312;2023-10-08T01:26:11;16.00;99.90
22112;DHT22;11222;50.872;4.312;2023-10-08T01:28:38;15.90;99.90
22112;DHT22;11222;50.872;4.312;2023-10-08T01:31:03;15.90;99.90
22112;DHT22;11222;50.872;4.312;2023-10-08T01:33:32;15.90;99.90
22112;DHT22;11222;50.872;4.312;2023-10-08T01:36:08;15.90;99.90
22112;DHT22;11222;50.872;4.312;2023-10-08T01:38:38;15.90;99.90
22112;DHT22;11222;50.872;4.312;2023-10-08T01:41:04;15.90;99.90
22112;DHT22;11222;50.872;4.312;2023-10-08T01:43:43;15.80;99.90
22112;DHT22;11222;50.872;4.312;2023-10-08T01:46:09;15.70;99.90
22112;DHT22;11222;50.872;4.312;2023-10-08T01:48:40;15.70;99.90
22112;DHT22;11222;50.872;4.312;2023-10-08T01:51:07;15.70;99.90
22112;DHT22;11222;50.872;4.312;2023-10-08T01:53:39;15.70;99.90
22112;DHT22;11222;50.872;4.312;2023-10-08T01:56:05;15.70;99.90
22112;DHT22;11222;50.872;4.312;2023-10-08T01:58:31;15.70;99.90
22112;DHT22;11222;50.872;4.312;2023-10-08T02:00:58;15.70;99.90
22112;DHT22;11222;50.872;4.312;2023-10-08T02:03:25;15.70;99.90
22112;DHT22;11222;50.872;4.312;2023-10-08T02:05:50;15.60;99.90
22112;DHT22;11222;50.872;4.312;2023-10-08T02:08:19;15.60;99.90
22112;DHT22;11222;50.872;4.312;2023-10-08T02:10:44;15.60;99.90
22112;DHT22;11222;50.872;4.312;2023-10-08T02:13:12;15.60;99.90
22112;DHT22;11222;50.872;4.312;2023-10-08T02:15:45;15.50;99.90
22112;DHT22;11222;50.872;4.312;2023-10-08T02:18:11;15.50;99.90
22112;DHT22;11222;50.872;4.312;2023-10-08T02:20:38;15.50;99.90
22112;DHT22;11222;50.872;4.312;2023-10-08T02:23:05;15.40;99.90
22112;DHT22;11222;50.872;4.312;2023-10-08T02:25:31;15.50;99.90
22112;DHT22;11222;50.872;4.312;2023-10-08T02:27:56;15.50;99.90
22112;DHT22;11222;50.872;4.312;2023-10-08T02:30:23;15.40;99.90
22112;DHT22;11222;50.872;4.312;2023-10-08T02:32:48;15.40;99.90
22112;DHT22;11222;50.872;4.312;2023-10-08T02:35:15;15.30;99.90
22112;DHT22;11222;50.872;4.312;2023-10-08T02:37:40;15.20;99.90
22112;DHT22;11222;50.872;4.312;2023-10-08T02:40:07;15.10;99.90
22112;DHT22;11222;50.872;4.312;2023-10-08T02:42:41;15.10;99.90
22112;DHT22;11222;50.872;4.312;2023-10-08T02:45:10;15.10;99.90
22112;DHT22;11222;50.872;4.312;2023-10-08T02:47:42;15.00;99.90
22112;DHT22;11222;50.872;4.312;2023-10-08T02:50:10;15.00;99.90
22112;DHT22;11222;50.872;4.312;2023-10-08T02:52:42;15.10;99.90
22112;DHT22;11222;50.872;4.312;2023-10-08T02:55:09;15.10;99.90
22112;DHT22;11222;50.872;4.312;2023-10-08T02:57:48;15.20;99.90
22112;DHT22;11222;50.872;4.312;2023-10-08T03:00:16;15.30;99.90
22112;DHT22;11222;50.872;4.312;2023-10-08T03:02:44;15.40;99.90
22112;DHT22;11222;50.872;4.312;2023-10-08T03:05:11;15.50;99.90
22112;DHT22;11222;50.872;4.312;2023-10-08T03:07:38;15.50;99.90
22112;DHT22;11222;50.872;4.312;2023-10-08T03:10:05;15.50;99.90
22112;DHT22;11222;50.872;4.312;2023-10-08T03:12:34;15.50;99.90
22112;DHT22;11222;50.872;4.312;2023-10-08T03:15:00;15.50;99.90
22112;DHT22;11222;50.872;4.312;2023-10-08T03:17:38;15.60;99.90
22112;DHT22;11222;50.872;4.312;2023-10-08T03:20:04;15.60;99.90
22112;DHT22;11222;50.872;4.312;2023-10-08T03:22:50;15.60;99.90
22112;DHT22;11222;50.872;4.312;2023-10-08T03:25:16;15.70;99.90
22112;DHT22;11222;50.872;4.312;2023-10-08T03:27:42;15.70;99.90
22112;DHT22;11222;50.872;4.312;2023-10-08T03:30:08;15.70;99.90
22112;DHT22;11222;50.872;4.312;2023-10-08T03:32:40;15.60;99.90
22112;DHT22;11222;50.872;4.312;2023-10-08T03:35:07;15.60;99.90
22112;DHT22;11222;50.872;4.312;2023-10-08T03:37:36;15.60;99.90
22112;DHT22;11222;50.872;4.312;2023-10-08T03:40:06;15.50;99.90
22112;DHT22;11222;50.872;4.312;2023-10-08T03:43:04;15.50;99.90
22112;DHT22;11222;50.872;4.312;2023-10-08T03:45:40;15.40;99.90
22112;DHT22;11222;50.872;4.312;2023-10-08T03:48:25;15.40;99.90
22112;DHT22;11222;50.872;4.312;2023-10-08T03:50:50;15.40;99.90
22112;DHT22;11222;50.872;4.312;2023-10-08T03:53:32;15.40;99.90
22112;DHT22;11222;50.872;4.312;2023-10-08T03:55:59;15.40;99.90
22112;DHT22;11222;50.872;4.312;2023-10-08T03:58:30;15.40;99.90
22112;DHT22;11222;50.872;4.312;2023-10-08T04:00:59;15.40;99.90
22112;DHT22;11222;50.872;4.312;2023-10-08T04:03:34;15.40;99.90
22112;DHT22;11222;50.872;4.312;2023-10-08T04:06:19;15.40;99.90
22112;DHT22;11222;50.872;4.312;2023-10-08T04:08:48;15.50;99.90
22112;DHT22;11222;50.872;4.312;2023-10-08T04:11:32;15.50;99.90
22112;DHT22;11222;50.872;4.312;2023-10-08T04:14:01;15.40;99.90
22112;DHT22;11222;50.872;4.312;2023-10-08T04:16:32;15.30;99.90
22112;DHT22;11222;50.872;4.312;2023-10-08T04:19:02;15.30;99.90
22112;DHT22;11222;50.872;4.312;2023-10-08T04:21:28;15.30;99.90
22112;DHT22;11222;50.872;4.312;2023-10-08T04:23:54;15.30;99.90
22112;DHT22;11222;50.872;4.312;2023-10-08T04:26:23;15.30;99.90
22112;DHT22;11222;50.872;4.312;2023-10-08T04:28:52;15.30;99.90
22112;DHT22;11222;50.872;4.312;2023-10-08T04:31:31;15.20;99.90
22112;DHT22;11222;50.872;4.312;2023-10-08T04:34:08;15.20;99.90
22112;DHT22;11222;50.872;4.312;2023-10-08T04:36:47;15.30;99.90
22112;DHT22;11222;50.872;4.312;2023-10-08T04:39:20;15.30;99.90
22112;DHT22;11222;50.872;4.312;2023-10-08T04:41:52;15.30;99.90
22112;DHT22;11222;50.872;4.312;2023-10-08T04:44:19;15.30;99.90
22112;DHT22;11222;50.872;4.312;2023-10-08T04:46:47;15.30;99.90
22112;DHT22;11222;50.872;4.312;2023-10-08T04:49:14;15.20;99.90
22112;DHT22;11222;50.872;4.312;2023-10-08T04:51:49;15.20;99.90
22112;DHT22;11222;50.872;4.312;2023-10-08T04:54:14;15.20;99.90
22112;DHT22;11222;50.872;4.312;2023-10-08T04:56:43;15.10;99.90
22112;DHT22;11222;50.872;4.312;2023-10-08T04:59:09;15.10;99.90
22112;DHT22;11222;50.872;4.312;2023-10-08T05:01:37;15.00;99.90
22112;DHT22;11222;50.872;4.312;2023-10-08T05:04:34;15.10;99.90
22112;DHT22;11222;50.872;4.312;2023-10-08T05:07:12;15.10;99.90
22112;DHT22;11222;50.872;4.312;2023-10-08T05:09:52;15.20;99.90
22112;DHT22;11222;50.872;4.312;2023-10-08T05:12:37;15.20;99.90
22112;DHT22;11222;50.872;4.312;2023-10-08T05:15:06;15.20;99.90
22112;DHT22;11222;50.872;4.312;2023-10-08T05:17:47;15.20;99.90
22112;DHT22;11222;50.872;4.312;2023-10-08T05:20:19;15.20;99.90
22112;DHT22;11222;50.872;4.312;2023-10-08T05:22:55;15.10;99.90
22112;DHT22;11222;50.872;4.312;2023-10-08T05:25:31;15.10;99.90
22112;DHT22;11222;50.872;4.312;2023-10-08T05:28:22;15.00;99.90
22112;DHT22;11222;50.872;4.312;2023-10-08T05:30:51;15.00;99.90
22112;DHT22;11222;50.872;4.312;2023-10-08T05:33:36;14.90;99.90
22112;DHT22;11222;50.872;4.312;2023-10-08T05:36:20;14.90;99.90
22112;DHT22;11222;50.872;4.312;2023-10-08T05:38:54;14.90;99.90
22112;DHT22;11222;50.872;4.312;2023-10-08T05:41:29;14.80;99.90
22112;DHT22;11222;50.872;4.312;2023-10-08T05:44:05;14.80;99.90
22112;DHT22;11222;50.872;4.312;2023-10-08T05:46:41;14.80;99.90
22112;DHT22;11222;50.872;4.312;2023-10-08T05:49:14;14.90;99.90
22112;DHT22;11222;50.872;4.312;2023-10-08T05:51:40;14.90;99.90
22112;DHT22;11222;50.872;4.312;2023-10-08T05:56:53;14.90;99.90
22112;DHT22;11222;50.872;4.312;2023-10-08T05:59:30;14.90;99.90
22112;DHT22;11222;50.872;4.312;2023-10-08T06:02:05;15.00;99.90
22112;DHT22;11222;50.872;4.312;2023-10-08T06:04:51;15.00;99.90
22112;DHT22;11222;50.872;4.312;2023-10-08T06:07:40;15.10;99.90
22112;DHT22;11222;50.872;4.312;2023-10-08T06:10:18;15.20;99.90
22112;DHT22;11222;50.872;4.312;2023-10-08T06:18:24;15.40;99.90
22112;DHT22;11222;50.872;4.312;2023-10-08T06:20:57;15.40;99.90
22112;DHT22;11222;50.872;4.312;2023-10-08T06:23:26;15.50;99.90
22112;DHT22;11222;50.872;4.312;2023-10-08T06:25:53;15.40;99.90
22112;DHT22;11222;50.872;4.312;2023-10-08T06:28:22;15.50;99.90
22112;DHT22;11222;50.872;4.312;2023-10-08T06:30:54;15.50;99.90
22112;DHT22;11222;50.872;4.312;2023-10-08T06:33:21;15.60;99.90
22112;DHT22;11222;50.872;4.312;2023-10-08T06:35:47;15.50;99.90
22112;DHT22;11222;50.872;4.312;2023-10-08T06:38:27;15.70;99.90
22112;DHT22;11222;50.872;4.312;2023-10-08T06:40:56;15.80;99.90
22112;DHT22;11222;50.872;4.312;2023-10-08T06:43:27;16.00;99.90
22112;DHT22;11222;50.872;4.312;2023-10-08T06:45:53;16.10;99.90
22112;DHT22;11222;50.872;4.312;2023-10-08T06:48:23;16.10;99.90
22112;DHT22;11222;50.872;4.312;2023-10-08T06:50:49;16.10;99.90
22112;DHT22;11222;50.872;4.312;2023-10-08T06:53:15;16.10;99.90
22112;DHT22;11222;50.872;4.312;2023-10-08T06:55:43;16.00;99.90
22112;DHT22;11222;50.872;4.312;2023-10-08T06:58:09;15.90;99.90
22112;DHT22;11222;50.872;4.312;2023-10-08T07:00:37;15.90;99.90
22112;DHT22;11222;50.872;4.312;2023-10-08T07:03:06;15.90;99.90
22112;DHT22;11222;50.872;4.312;2023-10-08T07:05:40;15.90;99.90
22112;DHT22;11222;50.872;4.312;2023-10-08T07:08:07;15.90;99.90
22112;DHT22;11222;50.872;4.312;2023-10-08T07:10:33;15.90;99.90
22112;DHT22;11222;50.872;4.312;2023-10-08T07:13:01;15.90;99.90
22112;DHT22;11222;50.872;4.312;2023-10-08T07:15:28;15.90;99.90
22112;DHT22;11222;50.872;4.312;2023-10-08T07:17:56;16.00;99.90
22112;DHT22;11222;50.872;4.312;2023-10-08T07:20:21;16.00;99.90
22112;DHT22;11222;50.872;4.312;2023-10-08T07:22:48;16.00;99.90
22112;DHT22;11222;50.872;4.312;2023-10-08T07:25:22;16.10;99.90
22112;DHT22;11222;50.872;4.312;2023-10-08T07:27:49;16.20;99.90
22112;DHT22;11222;50.872;4.312;2023-10-08T07:30:14;16.20;99.90
22112;DHT22;11222;50.872;4.312;2023-10-08T07:32:54;16.20;99.90
22112;DHT22;11222;50.872;4.312;2023-10-08T07:35:20;16.20;99.90
22112;DHT22;11222;50.872;4.312;2023-10-08T07:37:45;16.30;99.90
22112;DHT22;11222;50.872;4.312;2023-10-08T07:40:15;16.50;99.90
22112;DHT22;11222;50.872;4.312;2023-10-08T07:42:41;16.60;99.90
22112;DHT22;11222;50.872;4.312;2023-10-08T07:45:06;16.70;99.90
22112;DHT22;11222;50.872;4.312;2023-10-08T07:47:32;16.70;99.90
22112;DHT22;11222;50.872;4.312;2023-10-08T07:49:57;16.80;99.90
22112;DHT22;11222;50.872;4.312;2023-10-08T07:52:24;17.00;99.90
22112;DHT22;11222;50.872;4.312;2023-10-08T07:54:50;17.00;99.90
22112;DHT22;11222;50.872;4.312;2023-10-08T07:57:15;17.00;99.90
22112;DHT22;11222;50.872;4.312;2023-10-08T07:59:51;17.00;99.90
22112;DHT22;11222;50.872;4.312;2023-10-08T08:02:20;17.10;99.90
22112;DHT22;11222;50.872;4.312;2023-10-08T08:04:52;17.10;99.90
22112;DHT22;11222;50.872;4.312;2023-10-08T08:07:18;17.20;99.90
22112;DHT22;11222;50.872;4.312;2023-10-08T08:09:48;17.30;99.90
22112;DHT22;11222;50.872;4.312;2023-10-08T08:12:20;17.30;99.90
22112;DHT22;11222;50.872;4.312;2023-10-08T08:14:47;17.30;99.90
22112;DHT22;11222;50.872;4.312;2023-10-08T08:17:17;17.30;99.90
22112;DHT22;11222;50.872;4.312;2023-10-08T08:19:43;17.20;99.90
22112;DHT22;11222;50.872;4.312;2023-10-08T08:22:20;17.10;99.90
22112;DHT22;11222;50.872;4.312;2023-10-08T08:24:49;17.00;99.90
22112;DHT22;11222;50.872;4.312;2023-10-08T08:27:19;16.90;99.90
22112;DHT22;11222;50.872;4.312;2023-10-08T08:30:04;17.00;99.90
22112;DHT22;11222;50.872;4.312;2023-10-08T08:32:50;17.20;99.90
22112;DHT22;11222;50.872;4.312;2023-10-08T08:35:17;17.30;99.90
22112;DHT22;11222;50.872;4.312;2023-10-08T08:37:43;17.40;99.90
22112;DHT22;11222;50.872;4.312;2023-10-08T08:40:09;17.40;99.90
22112;DHT22;11222;50.872;4.312;2023-10-08T08:42:35;17.50;99.90
22112;DHT22;11222;50.872;4.312;2023-10-08T08:45:06;17.70;99.90
22112;DHT22;11222;50.872;4.312;2023-10-08T08:47:37;17.90;99.90
22112;DHT22;11222;50.872;4.312;2023-10-08T08:50:06;18.00;99.90
22112;DHT22;11222;50.872;4.312;2023-10-08T08:52:34;18.00;99.90
22112;DHT22;11222;50.872;4.312;2023-10-08T08:55:03;17.90;99.90
22112;DHT22;11222;50.872;4.312;2023-10-08T08:57:32;17.90;99.90
22112;DHT22;11222;50.872;4.312;2023-10-08T08:59:58;18.10;99.90
22112;DHT22;11222;50.872;4.312;2023-10-08T09:02:24;18.20;99.90
22112;DHT22;11222;50.872;4.312;2023-10-08T09:04:50;18.40;99.90
22112;DHT22;11222;50.872;4.312;2023-10-08T09:07:19;18.60;99.90
22112;DHT22;11222;50.872;4.312;2023-10-08T09:09:46;18.80;99.90
22112;DHT22;11222;50.872;4.312;2023-10-08T09:12:16;18.80;99.90
22112;DHT22;11222;50.872;4.312;2023-10-08T09:14:41;18.90;99.90
22112;DHT22;11222;50.872;4.312;2023-10-08T09:17:07;19.00;99.90
22112;DHT22;11222;50.872;4.312;2023-10-08T09:19:36;19.10;99.90
22112;DHT22;11222;50.872;4.312;2023-10-08T09:22:06;19.10;99.90
22112;DHT22;11222;50.872;4.312;2023-10-08T09:24:32;19.20;99.90
22112;DHT22;11222;50.872;4.312;2023-10-08T09:27:08;19.50;99.90
22112;DHT22;11222;50.872;4.312;2023-10-08T09:29:34;19.50;99.90
22112;DHT22;11222;50.872;4.312;2023-10-08T09:32:10;19.60;99.90
22112;DHT22;11222;50.872;4.312;2023-10-08T09:34:35;19.50;99.90
22112;DHT22;11222;50.872;4.312;2023-10-08T09:37:01;19.60;99.90
22112;DHT22;11222;50.872;4.312;2023-10-08T09:39:28;19.60;99.90
22112;DHT22;11222;50.872;4.312;2023-10-08T09:41:57;19.60;99.90
22112;DHT22;11222;50.872;4.312;2023-10-08T09:44:24;19.70;99.90
22112;DHT22;11222;50.872;4.312;2023-10-08T09:46:53;19.80;99.90
22112;DHT22;11222;50.872;4.312;2023-10-08T09:49:46;20.00;99.90
22112;DHT22;11222;50.872;4.312;2023-10-08T09:52:10;20.20;99.90
22112;DHT22;11222;50.872;4.312;2023-10-08T09:54:56;20.70;99.90
22112;DHT22;11222;50.872;4.312;2023-10-08T09:57:24;20.90;99.90
22112;DHT22;11222;50.872;4.312;2023-10-08T09:59:52;20.70;99.90
22112;DHT22;11222;50.872;4.312;2023-10-08T10:02:18;20.80;99.90
22112;DHT22;11222;50.872;4.312;2023-10-08T10:04:48;21.10;99.90
22112;DHT22;11222;50.872;4.312;2023-10-08T10:07:15;22.30;99.90
22112;DHT22;11222;50.872;4.312;2023-10-08T10:09:45;24.10;99.90
22112;DHT22;11222;50.872;4.312;2023-10-08T10:12:12;25.50;99.90
22112;DHT22;11222;50.872;4.312;2023-10-08T10:14:45;26.70;99.90
22112;DHT22;11222;50.872;4.312;2023-10-08T10:17:14;26.40;99.90
22112;DHT22;11222;50.872;4.312;2023-10-08T10:19:41;27.20;99.90
22112;DHT22;11222;50.872;4.312;2023-10-08T10:22:12;27.40;99.90
22112;DHT22;11222;50.872;4.312;2023-10-08T10:24:39;28.20;99.90
22112;DHT22;11222;50.872;4.312;2023-10-08T10:27:11;29.00;99.90
22112;DHT22;11222;50.872;4.312;2023-10-08T10:29:37;28.10;99.90
22112;DHT22;11222;50.872;4.312;2023-10-08T10:32:02;27.70;99.90
22112;DHT22;11222;50.872;4.312;2023-10-08T10:34:30;27.10;99.90
22112;DHT22;11222;50.872;4.312;2023-10-08T10:37:00;26.80;99.90
22112;DHT22;11222;50.872;4.312;2023-10-08T10:39:34;26.30;99.90
22112;DHT22;11222;50.872;4.312;2023-10-08T10:42:05;26.60;99.90
22112;DHT22;11222;50.872;4.312;2023-10-08T10:44:45;26.20;99.90
22112;DHT22;11222;50.872;4.312;2023-10-08T10:47:14;26.60;99.90
22112;DHT22;11222;50.872;4.312;2023-10-08T10:49:40;27.20;99.90
22112;DHT22;11222;50.872;4.312;2023-10-08T10:55:05;27.00;99.90
22112;DHT22;11222;50.872;4.312;2023-10-08T10:57:44;26.70;99.90
22112;DHT22;11222;50.872;4.312;2023-10-08T11:00:10;27.50;99.90
22112;DHT22;11222;50.872;4.312;2023-10-08T11:02:55;26.70;99.90
22112;DHT22;11222;50.872;4.312;2023-10-08T11:05:27;26.50;99.90
22112;DHT22;11222;50.872;4.312;2023-10-08T11:07:56;26.60;99.90
22112;DHT22;11222;50.872;4.312;2023-10-08T11:10:37;26.40;99.90
22112;DHT22;11222;50.872;4.312;2023-10-08T11:13:11;26.20;99.90
22112;DHT22;11222;50.872;4.312;2023-10-08T11:15:44;26.30;99.90
22112;DHT22;11222;50.872;4.312;2023-10-08T11:18:15;26.60;99.90
22112;DHT22;11222;50.872;4.312;2023-10-08T11:20:43;26.80;99.90
22112;DHT22;11222;50.872;4.312;2023-10-08T11:23:33;27.30;99.90
22112;DHT22;11222;50.872;4.312;2023-10-08T11:26:01;27.90;99.90
22112;DHT22;11222;50.872;4.312;2023-10-08T11:28:33;28.00;99.90
22112;DHT22;11222;50.872;4.312;2023-10-08T11:31:07;28.00;99.90
22112;DHT22;11222;50.872;4.312;2023-10-08T11:33:35;29.50;99.90
22112;DHT22;11222;50.872;4.312;2023-10-08T11:36:02;28.80;99.90
22112;DHT22;11222;50.872;4.312;2023-10-08T11:38:40;29.00;99.90
22112;DHT22;11222;50.872;4.312;2023-10-08T11:41:12;28.40;99.90
22112;DHT22;11222;50.872;4.312;2023-10-08T11:43:50;27.60;99.90
22112;DHT22;11222;50.872;4.312;2023-10-08T11:46:25;27.20;99.90
22112;DHT22;11222;50.872;4.312;2023-10-08T11:48:56;26.90;99.90
22112;DHT22;11222;50.872;4.312;2023-10-08T11:51:24;26.40;99.90
22112;DHT22;11222;50.872;4.312;2023-10-08T11:53:49;26.10;99.90
22112;DHT22;11222;50.872;4.312;2023-10-08T11:56:15;26.40;99.90
22112;DHT22;11222;50.872;4.312;2023-10-08T11:58:41;26.40;99.90
22112;DHT22;11222;50.872;4.312;2023-10-08T12:01:12;26.70;99.90
22112;DHT22;11222;50.872;4.312;2023-10-08T12:03:43;26.40;99.90
22112;DHT22;11222;50.872;4.312;2023-10-08T12:06:10;26.10;99.90
22112;DHT22;11222;50.872;4.312;2023-10-08T12:08:41;25.70;99.90
22112;DHT22;11222;50.872;4.312;2023-10-08T12:11:06;25.60;99.90
22112;DHT22;11222;50.872;4.312;2023-10-08T12:13:40;25.20;99.90
22112;DHT22;11222;50.872;4.312;2023-10-08T12:16:13;24.80;99.90
22112;DHT22;11222;50.872;4.312;2023-10-08T12:18:46;24.50;99.90
22112;DHT22;11222;50.872;4.312;2023-10-08T12:21:19;24.30;99.90
22112;DHT22;11222;50.872;4.312;2023-10-08T12:23:45;24.10;99.90
22112;DHT22;11222;50.872;4.312;2023-10-08T12:26:12;24.00;99.90
22112;DHT22;11222;50.872;4.312;2023-10-08T12:28:44;24.00;99.90
22112;DHT22;11222;50.872;4.312;2023-10-08T12:31:22;24.00;99.90
22112;DHT22;11222;50.872;4.312;2023-10-08T12:33:49;24.00;99.90
22112;DHT22;11222;50.872;4.312;2023-10-08T12:36:21;24.10;99.90
22112;DHT22;11222;50.872;4.312;2023-10-08T12:38:51;24.10;99.90
22112;DHT22;11222;50.872;4.312;2023-10-08T12:41:25;23.90;99.90
22112;DHT22;11222;50.872;4.312;2023-10-08T12:43:54;23.70;99.90
22112;DHT22;11222;50.872;4.312;2023-10-08T12:46:20;23.50;99.90
22112;DHT22;11222;50.872;4.312;2023-10-08T12:48:56;23.40;99.90
22112;DHT22;11222;50.872;4.312;2023-10-08T12:51:22;23.30;99.90
22112;DHT22;11222;50.872;4.312;2023-10-08T12:53:52;23.40;99.90
22112;DHT22;11222;50.872;4.312;2023-10-08T12:56:25;23.40;99.90
22112;DHT22;11222;50.872;4.312;2023-10-08T12:59:00;23.40;99.90
22112;DHT22;11222;50.872;4.312;2023-10-08T13:01:29;23.50;99.90
22112;DHT22;11222;50.872;4.312;2023-10-08T13:03:55;23.50;99.90
22112;DHT22;11222;50.872;4.312;2023-10-08T13:06:26;23.50;99.90
22112;DHT22;11222;50.872;4.312;2023-10-08T13:08:56;23.60;99.90
22112;DHT22;11222;50.872;4.312;2023-10-08T13:11:22;23.70;99.90
22112;DHT22;11222;50.872;4.312;2023-10-08T13:13:52;23.70;99.90
22112;DHT22;11222;50.872;4.312;2023-10-08T13:16:19;23.70;99.90
22112;DHT22;11222;50.872;4.312;2023-10-08T13:18:47;23.70;99.90
22112;DHT22;11222;50.872;4.312;2023-10-08T13:21:12;23.60;99.90
22112;DHT22;11222;50.872;4.312;2023-10-08T13:23:38;23.60;99.90
22112;DHT22;11222;50.872;4.312;2023-10-08T13:26:05;23.60;99.90
22112;DHT22;11222;50.872;4.312;2023-10-08T13:28:35;23.60;99.90
22112;DHT22;11222;50.872;4.312;2023-10-08T13:31:01;23.70;99.90
22112;DHT22;11222;50.872;4.312;2023-10-08T13:33:41;23.60;99.90
22112;DHT22;11222;50.872;4.312;2023-10-08T13:36:14;23.50;99.90
22112;DHT22;11222;50.872;4.312;2023-10-08T13:38:40;23.50;99.90
22112;DHT22;11222;50.872;4.312;2023-10-08T13:41:06;23.50;99.90
22112;DHT22;11222;50.872;4.312;2023-10-08T13:43:46;23.40;99.90
22112;DHT22;11222;50.872;4.312;2023-10-08T13:46:13;23.30;99.90
22112;DHT22;11222;50.872;4.312;2023-10-08T13:48:40;23.40;99.90
22112;DHT22;11222;50.872;4.312;2023-10-08T13:51:06;23.40;99.90
22112;DHT22;11222;50.872;4.312;2023-10-08T13:53:41;23.40;99.90
22112;DHT22;11222;50.872;4.312;2023-10-08T13:56:10;23.30;99.90
22112;DHT22;11222;50.872;4.312;2023-10-08T13:58:37;23.30;99.90
22112;DHT22;11222;50.872;4.312;2023-10-08T14:01:06;23.20;99.90
22112;DHT22;11222;50.872;4.312;2023-10-08T14:03:53;23.30;99.90
22112;DHT22;11222;50.872;4.312;2023-10-08T14:06:19;23.40;99.90
22112;DHT22;11222;50.872;4.312;2023-10-08T14:08:45;23.40;99.90
22112;DHT22;11222;50.872;4.312;2023-10-08T14:11:17;23.40;99.90
22112;DHT22;11222;50.872;4.312;2023-10-08T14:13:43;23.40;99.90
22112;DHT22;11222;50.872;4.312;2023-10-08T14:16:09;23.50;99.90
22112;DHT22;11222;50.872;4.312;2023-10-08T14:18:36;23.40;99.90
22112;DHT22;11222;50.872;4.312;2023-10-08T14:21:19;23.40;99.90
22112;DHT22;11222;50.872;4.312;2023-10-08T14:23:49;23.40;99.90
22112;DHT22;11222;50.872;4.312;2023-10-08T14:26:14;23.50;99.90
22112;DHT22;11222;50.872;4.312;2023-10-08T14:28:41;23.50;99.90
22112;DHT22;11222;50.872;4.312;2023-10-08T14:31:08;23.70;99.90
22112;DHT22;11222;50.872;4.312;2023-10-08T14:33:34;23.90;99.90
22112;DHT22;11222;50.872;4.312;2023-10-08T14:36:08;24.00;99.90
22112;DHT22;11222;50.872;4.312;2023-10-08T14:38:52;24.00;99.90
22112;DHT22;11222;50.872;4.312;2023-10-08T14:41:36;24.00;99.90
22112;DHT22;11222;50.872;4.312;2023-10-08T14:44:21;24.00;99.90
22112;DHT22;11222;50.872;4.312;2023-10-08T14:46:46;23.90;99.90
22112;DHT22;11222;50.872;4.312;2023-10-08T14:49:12;23.90;99.90
22112;DHT22;11222;50.872;4.312;2023-10-08T14:51:37;23.90;99.90
22112;DHT22;11222;50.872;4.312;2023-10-08T14:54:05;23.90;99.90
22112;DHT22;11222;50.872;4.312;2023-10-08T14:56:33;23.90;99.90
22112;DHT22;11222;50.872;4.312;2023-10-08T14:58:59;23.70;99.90
22112;DHT22;11222;50.872;4.312;2023-10-08T15:01:26;23.60;99.90
22112;DHT22;11222;50.872;4.312;2023-10-08T15:03:52;23.60;99.90
22112;DHT22;11222;50.872;4.312;2023-10-08T15:06:17;23.50;99.90
22112;DHT22;11222;50.872;4.312;2023-10-08T15:08:44;23.40;99.90
22112;DHT22;11222;50.872;4.312;2023-10-08T15:11:10;23.40;99.90
22112;DHT22;11222;50.872;4.312;2023-10-08T15:13:36;23.30;99.90
22112;DHT22;11222;50.872;4.312;2023-10-08T15:16:06;23.30;99.90
22112;DHT22;11222;50.872;4.312;2023-10-08T15:18:32;23.40;99.90
22112;DHT22;11222;50.872;4.312;2023-10-08T15:21:08;23.40;99.90
22112;DHT22;11222;50.872;4.312;2023-10-08T15:23:33;23.30;99.90
22112;DHT22;11222;50.872;4.312;2023-10-08T15:25:59;23.20;99.90
22112;DHT22;11222;50.872;4.312;2023-10-08T15:28:24;23.10;99.90
22112;DHT22;11222;50.872;4.312;2023-10-08T15:30:51;23.10;99.90
22112;DHT22;11222;50.872;4.312;2023-10-08T15:33:17;23.00;99.90
22112;DHT22;11222;50.872;4.312;2023-10-08T15:35:43;23.00;99.90
22112;DHT22;11222;50.872;4.312;2023-10-08T15:38:08;23.00;99.90
22112;DHT22;11222;50.872;4.312;2023-10-08T15:40:34;22.90;99.90
22112;DHT22;11222;50.872;4.312;2023-10-08T15:42:59;22.90;99.90
22112;DHT22;11222;50.872;4.312;2023-10-08T15:45:25;22.90;99.90
22112;DHT22;11222;50.872;4.312;2023-10-08T15:47:51;22.90;99.90
22112;DHT22;11222;50.872;4.312;2023-10-08T15:50:17;22.90;99.90
22112;DHT22;11222;50.872;4.312;2023-10-08T15:52:46;22.90;99.90
22112;DHT22;11222;50.872;4.312;2023-10-08T15:55:13;22.90;99.90
22112;DHT22;11222;50.872;4.312;2023-10-08T15:57:38;22.90;99.90
22112;DHT22;11222;50.872;4.312;2023-10-08T16:00:07;22.90;99.90